createdAt,value
2019-01-28T00:01:02.737Z,55.64
2019-01-28T00:02:07.145Z,55.66
2019-01-28T00:03:11.427Z,55.61
2019-01-28T00:04:15.985Z,55.57
2019-01-28T00:05:19.949Z,55.58
2019-01-28T00:06:24.338Z,55.62
2019-01-28T00:07:28.947Z,55.65
2019-01-28T00:08:33.301Z,55.64
2019-01-28T00:09:37.916Z,55.66
2019-01-28T00:10:42.292Z,55.73
2019-01-28T00:11:46.535Z,55.78
2019-01-28T00:12:50.866Z,55.77
2019-01-28T00:13:55.152Z,55.71
2019-01-28T00:14:59.483Z,55.64
2019-01-28T00:16:03.867Z,55.41
2019-01-28T00:17:08.152Z,55.35
2019-01-28T00:18:12.330Z,55.38
2019-01-28T00:19:16.795Z,55.38
2019-01-28T00:20:21.038Z,55.33
2019-01-28T00:21:25.035Z,55.29
2019-01-28T00:22:29.333Z,55.25
2019-01-28T00:23:33.754Z,55.24
2019-01-28T00:24:37.787Z,55.28
2019-01-28T00:25:41.839Z,55.18
2019-01-28T00:26:45.843Z,55.21
2019-01-28T00:27:50.158Z,55.21
2019-01-28T00:28:54.067Z,55.19
2019-01-28T00:29:58.356Z,55.19
2019-01-28T00:31:02.958Z,55.28
2019-01-28T00:32:06.942Z,55.31
2019-01-28T00:33:11.265Z,55.19
2019-01-28T00:34:15.249Z,55.17
2019-01-28T00:35:19.595Z,55.22
2019-01-28T00:36:24.292Z,55.20
2019-01-28T00:37:28.596Z,55.21
2019-01-28T00:38:32.805Z,55.18
2019-01-28T00:39:37.013Z,55.19
2019-01-28T00:40:41.316Z,55.24
2019-01-28T00:41:45.678Z,55.29
2019-01-28T00:42:49.931Z,55.30
2019-01-28T00:43:54.342Z,55.26
2019-01-28T00:44:58.428Z,55.17
2019-01-28T00:46:02.583Z,55.15
2019-01-28T00:47:06.570Z,55.04
2019-01-28T00:48:10.715Z,55.08
2019-01-28T00:49:14.949Z,55.11
2019-01-28T00:50:18.920Z,55.17
2019-01-28T00:51:23.137Z,55.18
2019-01-28T00:52:27.369Z,55.06
2019-01-28T00:53:31.599Z,55.06
2019-01-28T00:54:35.835Z,55.00
2019-01-28T00:55:40.320Z,54.95
2019-01-28T00:56:44.570Z,54.96
2019-01-28T00:57:49.036Z,55.13
2019-01-28T00:58:53.263Z,55.20
2019-01-28T00:59:57.409Z,55.28
2019-01-28T01:01:01.387Z,55.37
2019-01-28T01:02:05.383Z,55.38
2019-01-28T01:03:09.357Z,55.39
2019-01-28T01:04:13.579Z,55.37
2019-01-28T01:05:17.557Z,55.30
2019-01-28T01:06:22.066Z,55.31
2019-01-28T01:07:26.055Z,55.31
2019-01-28T01:08:30.305Z,55.39
2019-01-28T01:09:34.279Z,55.37
2019-01-28T01:10:38.434Z,55.41
2019-01-28T01:11:42.913Z,55.30
2019-01-28T01:12:46.903Z,55.29
2019-01-28T01:13:51.135Z,55.40
2019-01-28T01:14:55.216Z,55.43
2019-01-28T01:15:59.235Z,55.49
2019-01-28T01:17:03.261Z,55.62
2019-01-28T01:18:07.700Z,55.64
2019-01-28T01:19:11.724Z,55.62
2019-01-28T01:20:16.499Z,55.67
2019-01-28T01:21:20.825Z,55.65
2019-01-28T01:22:25.184Z,55.79
2019-01-28T01:23:29.439Z,55.89
2019-01-28T01:24:33.664Z,55.95
2019-01-28T01:25:37.652Z,55.97
2019-01-28T01:26:41.635Z,55.94
2019-01-28T01:27:45.872Z,55.99
2019-01-28T01:28:50.250Z,55.99
2019-01-28T01:29:54.267Z,55.93
2019-01-28T01:30:58.360Z,55.78
2019-01-28T01:32:02.342Z,55.64
2019-01-28T01:33:06.679Z,55.58
2019-01-28T01:34:11.004Z,55.58
2019-01-28T01:35:15.294Z,55.51
2019-01-28T01:36:19.342Z,55.48
2019-01-28T01:37:23.604Z,55.45
2019-01-28T01:38:27.675Z,55.46
2019-01-28T01:39:31.584Z,55.44
2019-01-28T01:40:35.916Z,55.45
2019-01-28T01:41:40.431Z,55.43
2019-01-28T01:42:44.410Z,55.33
2019-01-28T01:43:49.059Z,55.26
2019-01-28T01:44:53.555Z,55.18
2019-01-28T01:45:57.538Z,55.07
2019-01-28T01:47:01.530Z,54.93
2019-01-28T01:48:05.639Z,54.76
2019-01-28T01:49:09.968Z,54.73
2019-01-28T01:50:14.799Z,54.67
2019-01-28T01:51:19.099Z,54.59
2019-01-28T01:52:23.611Z,54.57
2019-01-28T01:53:27.919Z,54.57
2019-01-28T01:54:32.110Z,54.56
2019-01-28T01:55:36.435Z,54.55
2019-01-28T01:56:40.762Z,54.55
2019-01-28T01:57:44.740Z,54.53
2019-01-28T01:58:48.725Z,54.46
2019-01-28T01:59:52.928Z,54.41
2019-01-28T02:00:57.259Z,54.40
2019-01-28T02:02:01.570Z,54.48
2019-01-28T02:03:05.787Z,54.45
2019-01-28T02:04:09.856Z,54.34
2019-01-28T02:05:13.930Z,54.28
2019-01-28T02:06:18.157Z,54.28
2019-01-28T02:07:22.127Z,54.33
2019-01-28T02:08:26.599Z,54.33
2019-01-28T02:09:31.102Z,54.30
2019-01-28T02:10:35.315Z,54.33
2019-01-28T02:11:39.291Z,54.34
2019-01-28T02:12:43.268Z,54.32
2019-01-28T02:13:47.238Z,54.24
2019-01-28T02:14:51.223Z,54.25
2019-01-28T02:15:55.438Z,54.23
2019-01-28T02:16:59.666Z,54.18
2019-01-28T02:18:03.893Z,54.15
2019-01-28T02:19:07.937Z,54.18
2019-01-28T02:20:12.295Z,54.19
2019-01-28T02:21:18.019Z,54.17
2019-01-28T02:22:21.916Z,54.15
2019-01-28T02:23:25.888Z,54.05
2019-01-28T02:24:29.854Z,53.93
2019-01-28T02:25:34.086Z,53.86
2019-01-28T02:26:38.058Z,53.89
2019-01-28T02:27:42.131Z,53.80
2019-01-28T02:28:46.600Z,53.81
2019-01-28T02:29:50.614Z,53.67
2019-01-28T02:30:54.841Z,53.56
2019-01-28T02:31:58.889Z,53.41
2019-01-28T02:33:02.807Z,53.41
2019-01-28T02:34:06.780Z,53.39
2019-01-28T02:35:10.932Z,53.43
2019-01-28T02:36:15.153Z,53.43
2019-01-28T02:37:19.430Z,53.38
2019-01-28T02:38:24.085Z,53.46
2019-01-28T02:39:28.358Z,53.46
2019-01-28T02:40:32.273Z,53.52
2019-01-28T02:41:36.183Z,53.56
2019-01-28T02:42:40.190Z,53.43
2019-01-28T02:43:44.359Z,53.41
2019-01-28T02:44:48.687Z,53.26
2019-01-28T02:45:53.084Z,53.24
2019-01-28T02:46:57.386Z,53.33
2019-01-28T02:48:01.373Z,53.35
2019-01-28T02:49:05.455Z,53.30
2019-01-28T02:50:12.672Z,53.12
2019-01-28T02:51:16.584Z,53.04
2019-01-28T02:52:20.872Z,53.09
2019-01-28T02:53:25.183Z,53.05
2019-01-28T02:54:29.090Z,52.97
2019-01-28T02:55:33.330Z,53.02
2019-01-28T02:56:37.332Z,53.13
2019-01-28T02:57:41.316Z,53.24
2019-01-28T02:58:45.302Z,53.21
2019-01-28T02:59:49.274Z,53.20
2019-01-28T03:00:53.259Z,53.15
2019-01-28T03:01:59.154Z,53.10
2019-01-28T03:03:03.409Z,53.10
2019-01-28T03:04:07.878Z,53.04
2019-01-28T03:05:12.202Z,53.12
2019-01-28T03:06:16.190Z,53.25
2019-01-28T03:07:20.184Z,53.33
2019-01-28T03:08:24.162Z,53.29
2019-01-28T03:09:28.319Z,53.40
2019-01-28T03:10:32.538Z,53.50
2019-01-28T03:11:36.525Z,53.64
2019-01-28T03:12:40.746Z,53.77
2019-01-28T03:13:44.892Z,53.80
2019-01-28T03:14:49.362Z,53.79
2019-01-28T03:15:53.333Z,53.87
2019-01-28T03:17:08.572Z,53.82
2019-01-28T03:18:12.794Z,53.85
2019-01-28T03:19:16.766Z,53.87
2019-01-28T03:20:20.905Z,53.91
2019-01-28T03:21:24.886Z,54.02
2019-01-28T03:22:30.283Z,53.99
2019-01-28T03:23:34.243Z,54.16
2019-01-28T03:24:38.468Z,54.24
2019-01-28T03:25:42.440Z,54.38
2019-01-28T03:26:46.440Z,54.57
2019-01-28T03:27:50.666Z,54.63
2019-01-28T03:28:54.945Z,54.66
2019-01-28T03:29:59.147Z,54.76
2019-01-28T03:31:03.143Z,54.83
2019-01-28T03:32:07.360Z,54.92
2019-01-28T03:33:11.428Z,55.04
2019-01-28T03:34:15.391Z,55.11
2019-01-28T03:35:19.741Z,55.16
2019-01-28T03:36:23.720Z,55.08
2019-01-28T03:37:27.964Z,55.10
2019-01-28T03:38:32.109Z,55.10
2019-01-28T03:39:36.623Z,55.25
2019-01-28T03:40:40.839Z,55.34
2019-01-28T03:41:45.062Z,55.35
2019-01-28T03:42:50.063Z,55.38
2019-01-28T03:43:54.636Z,55.45
2019-01-28T03:44:58.855Z,55.42
2019-01-28T03:46:03.074Z,55.47
2019-01-28T03:47:07.069Z,55.43
2019-01-28T03:48:11.291Z,55.43
2019-01-28T03:49:15.691Z,55.50
2019-01-28T03:50:20.020Z,55.59
2019-01-28T03:51:24.499Z,55.56
2019-01-28T03:52:28.811Z,55.55
2019-01-28T03:53:33.031Z,55.63
2019-01-28T03:54:37.007Z,55.67
2019-01-28T03:55:40.979Z,55.67
2019-01-28T03:56:44.952Z,55.75
2019-01-28T03:57:48.941Z,55.89
2019-01-28T03:58:52.916Z,55.94
2019-01-28T03:59:56.887Z,55.81
2019-01-28T04:01:01.106Z,55.80
2019-01-28T04:02:05.379Z,55.77
2019-01-28T04:03:09.674Z,55.80
2019-01-28T04:04:13.879Z,55.79
2019-01-28T04:05:17.964Z,55.74
2019-01-28T04:06:22.182Z,55.76
2019-01-28T04:07:26.150Z,55.81
2019-01-28T04:08:30.148Z,55.85
2019-01-28T04:09:34.130Z,55.77
2019-01-28T04:10:38.122Z,55.78
2019-01-28T04:11:42.743Z,55.80
2019-01-28T04:12:46.866Z,55.92
2019-01-28T04:13:51.463Z,55.98
2019-01-28T04:14:55.780Z,56.07
2019-01-28T04:16:00.283Z,56.12
2019-01-28T04:17:04.592Z,56.12
2019-01-28T04:18:08.917Z,56.21
2019-01-28T04:19:13.248Z,56.29
2019-01-28T04:20:17.623Z,56.11
2019-01-28T04:21:21.926Z,56.19
2019-01-28T04:22:25.763Z,56.36
2019-01-28T04:23:30.343Z,56.49
2019-01-28T04:24:34.326Z,56.57
2019-01-28T04:25:38.312Z,56.46
2019-01-28T04:26:42.224Z,56.39
2019-01-28T04:27:46.855Z,56.40
2019-01-28T04:28:51.468Z,56.48
2019-01-28T04:29:55.725Z,56.58
2019-01-28T04:30:59.980Z,56.54
2019-01-28T04:32:04.710Z,56.52
2019-01-28T04:33:08.618Z,56.59
2019-01-28T04:34:12.664Z,56.64
2019-01-28T04:35:17.075Z,56.70
2019-01-28T04:36:21.325Z,56.74
2019-01-28T04:37:25.651Z,56.75
2019-01-28T04:38:29.560Z,56.76
2019-01-28T04:39:34.026Z,56.74
2019-01-28T04:40:38.288Z,56.85
2019-01-28T04:41:42.266Z,56.84
2019-01-28T04:42:46.247Z,56.92
2019-01-28T04:43:50.777Z,57.04
2019-01-28T04:44:54.962Z,57.08
2019-01-28T04:45:59.395Z,57.00
2019-01-28T04:47:03.379Z,56.99
2019-01-28T04:48:07.363Z,56.97
2019-01-28T04:49:11.717Z,56.89
2019-01-28T04:50:17.330Z,56.87
2019-01-28T04:51:21.764Z,56.87
2019-01-28T04:52:25.656Z,56.92
2019-01-28T04:53:29.627Z,56.92
2019-01-28T04:54:33.786Z,56.91
2019-01-28T04:55:37.947Z,56.91
2019-01-28T04:56:42.013Z,56.96
2019-01-28T04:57:46.192Z,57.03
2019-01-28T04:58:50.164Z,57.12
2019-01-28T04:59:54.008Z,57.19
2019-01-28T05:00:58.221Z,57.17
2019-01-28T05:02:02.449Z,57.31
2019-01-28T05:03:06.945Z,57.39
2019-01-28T05:04:11.089Z,57.45
2019-01-28T05:05:15.623Z,57.53
2019-01-28T05:06:19.939Z,57.55
2019-01-28T05:07:24.085Z,57.60
2019-01-28T05:08:28.720Z,57.61
2019-01-28T05:09:32.647Z,57.63
2019-01-28T05:10:36.939Z,57.68
2019-01-28T05:11:40.924Z,57.71
2019-01-28T05:12:45.043Z,57.75
2019-01-28T05:13:49.343Z,57.70
2019-01-28T05:14:53.429Z,57.62
2019-01-28T05:15:57.416Z,57.62
2019-01-28T05:17:01.421Z,57.56
2019-01-28T05:18:05.759Z,57.63
2019-01-28T05:19:09.740Z,57.71
2019-01-28T05:20:15.196Z,57.78
2019-01-28T05:21:19.187Z,57.79
2019-01-28T05:22:23.415Z,57.71
2019-01-28T05:23:28.012Z,57.81
2019-01-28T05:24:32.315Z,57.85
2019-01-28T05:25:36.622Z,57.98
2019-01-28T05:26:40.677Z,57.95
2019-01-28T05:27:44.957Z,57.94
2019-01-28T05:28:49.249Z,57.99
2019-01-28T05:29:53.455Z,57.98
2019-01-28T05:30:57.688Z,57.97
2019-01-28T05:32:01.962Z,57.99
2019-01-28T05:33:06.370Z,58.09
2019-01-28T05:34:10.779Z,58.17
2019-01-28T05:35:16.021Z,58.22
2019-01-28T05:36:20.219Z,58.25
2019-01-28T05:37:24.936Z,58.28
2019-01-28T05:38:28.849Z,58.31
2019-01-28T05:39:33.140Z,58.23
2019-01-28T05:40:37.223Z,58.08
2019-01-28T05:41:41.656Z,58.01
2019-01-28T05:42:45.645Z,58.03
2019-01-28T05:43:49.691Z,58.07
2019-01-28T05:44:53.618Z,58.07
2019-01-28T05:45:57.967Z,58.07
2019-01-28T05:47:02.172Z,58.09
2019-01-28T05:48:06.911Z,58.14
2019-01-28T05:49:10.891Z,58.21
2019-01-28T05:50:15.953Z,58.27
2019-01-28T05:51:19.937Z,57.95
2019-01-28T05:52:23.921Z,57.82
2019-01-28T05:53:28.149Z,57.85
2019-01-28T05:54:32.136Z,57.82
2019-01-28T05:55:36.331Z,57.82
2019-01-28T05:56:40.470Z,57.88
2019-01-28T05:57:44.752Z,57.93
2019-01-28T05:58:48.689Z,57.97
2019-01-28T05:59:52.950Z,58.03
2019-01-28T06:00:56.994Z,58.10
2019-01-28T06:02:01.300Z,58.10
2019-01-28T06:03:05.567Z,58.18
2019-01-28T06:04:09.877Z,58.20
2019-01-28T06:05:14.236Z,58.14
2019-01-28T06:06:18.495Z,58.12
2019-01-28T06:07:22.695Z,58.19
2019-01-28T06:08:26.683Z,58.19
2019-01-28T06:09:30.620Z,58.13
2019-01-28T06:10:34.903Z,58.18
2019-01-28T06:11:38.891Z,58.17
2019-01-28T06:12:42.971Z,58.11
2019-01-28T06:13:47.114Z,58.10
2019-01-28T06:14:51.086Z,58.11
2019-01-28T06:15:55.344Z,58.21
2019-01-28T06:16:59.579Z,58.26
2019-01-28T06:18:03.799Z,58.26
2019-01-28T06:19:08.022Z,58.29
2019-01-28T06:20:15.839Z,58.32
2019-01-28T06:21:19.752Z,58.24
2019-01-28T06:22:23.651Z,58.17
2019-01-28T06:23:27.623Z,58.10
2019-01-28T06:24:31.812Z,57.97
2019-01-28T06:25:36.040Z,57.91
2019-01-28T06:26:40.279Z,58.01
2019-01-28T06:27:44.259Z,57.98
2019-01-28T06:28:48.481Z,58.29
2019-01-28T06:29:53.206Z,58.12
2019-01-28T06:30:57.111Z,58.48
2019-01-28T06:32:01.343Z,58.77
2019-01-28T06:33:05.396Z,58.75
2019-01-28T06:34:09.399Z,59.86
2019-01-28T06:35:13.480Z,60.59
2019-01-28T06:36:18.215Z,60.19
2019-01-28T06:37:22.720Z,59.46
2019-01-28T06:38:27.198Z,59.53
2019-01-28T06:39:31.423Z,59.92
2019-01-28T06:40:35.959Z,59.37
2019-01-28T06:41:40.431Z,59.05
2019-01-28T06:42:44.492Z,59.04
2019-01-28T06:43:48.922Z,58.63
2019-01-28T06:44:53.133Z,58.47
2019-01-28T06:45:57.354Z,58.57
2019-01-28T06:47:01.339Z,58.45
2019-01-28T06:48:05.319Z,58.33
2019-01-28T06:49:09.627Z,58.17
2019-01-28T06:50:15.262Z,57.98
2019-01-28T06:51:19.443Z,57.82
2019-01-28T06:52:23.739Z,57.66
2019-01-28T06:53:27.852Z,57.56
2019-01-28T06:54:32.147Z,57.59
2019-01-28T06:55:36.549Z,57.65
2019-01-28T06:56:40.685Z,57.64
2019-01-28T06:57:45.205Z,57.55
2019-01-28T06:58:49.892Z,57.46
2019-01-28T06:59:54.508Z,57.48
2019-01-28T07:00:58.935Z,57.62
2019-01-28T07:02:02.985Z,57.78
2019-01-28T07:03:08.073Z,57.99
2019-01-28T07:04:12.455Z,58.20
2019-01-28T07:05:16.540Z,58.31
2019-01-28T07:06:20.522Z,58.37
2019-01-28T07:07:26.213Z,58.40
2019-01-28T07:08:30.610Z,58.43
2019-01-28T07:09:34.922Z,58.44
2019-01-28T07:10:39.231Z,58.43
2019-01-28T07:11:43.819Z,58.44
2019-01-28T07:12:48.034Z,58.49
2019-01-28T07:13:52.693Z,58.52
2019-01-28T07:14:56.963Z,58.35
2019-01-28T07:16:02.109Z,58.19
2019-01-28T07:17:06.107Z,58.18
2019-01-28T07:18:10.479Z,58.19
2019-01-28T07:19:16.841Z,58.04
2019-01-28T07:20:23.225Z,57.80
2019-01-28T07:21:27.185Z,57.78
2019-01-28T07:22:31.195Z,57.80
2019-01-28T07:23:35.234Z,57.86
2019-01-28T07:24:39.466Z,57.92
2019-01-28T07:25:44.027Z,57.97
2019-01-28T07:26:48.002Z,57.93
2019-01-28T07:27:51.994Z,58.02
2019-01-28T07:28:56.375Z,58.00
2019-01-28T07:30:00.463Z,58.01
2019-01-28T07:31:04.767Z,57.93
2019-01-28T07:32:08.824Z,57.70
2019-01-28T07:33:13.011Z,57.57
2019-01-28T07:34:17.006Z,57.66
2019-01-28T07:35:20.983Z,57.79
2019-01-28T07:36:24.892Z,57.91
2019-01-28T07:37:29.370Z,57.98
2019-01-28T07:38:33.280Z,57.87
2019-01-28T07:39:37.255Z,57.76
2019-01-28T07:40:41.627Z,57.76
2019-01-28T07:41:45.606Z,57.71
2019-01-28T07:42:49.828Z,57.91
2019-01-28T07:43:54.010Z,58.14
2019-01-28T07:44:58.324Z,58.07
2019-01-28T07:46:02.300Z,57.88
2019-01-28T07:47:06.663Z,57.82
2019-01-28T07:48:10.646Z,57.85
2019-01-28T07:49:14.766Z,57.85
2019-01-28T07:50:19.065Z,57.84
2019-01-28T07:51:23.366Z,57.55
2019-01-28T07:52:27.451Z,57.62
2019-01-28T07:53:31.911Z,57.76
2019-01-28T07:54:36.114Z,57.87
2019-01-28T07:55:40.159Z,57.92
2019-01-28T07:56:44.350Z,58.04
2019-01-28T07:57:48.680Z,58.08
2019-01-28T07:58:53.091Z,58.12
2019-01-28T07:59:57.707Z,58.08
2019-01-28T08:01:01.707Z,58.09
2019-01-28T08:02:05.969Z,57.96
2019-01-28T08:03:10.227Z,58.00
2019-01-28T08:04:14.244Z,58.05
2019-01-28T08:05:19.002Z,57.96
2019-01-28T08:06:22.967Z,57.91
2019-01-28T08:07:27.351Z,57.88
2019-01-28T08:08:31.661Z,57.87
2019-01-28T08:09:35.783Z,57.77
2019-01-28T08:10:40.028Z,57.72
2019-01-28T08:11:45.820Z,57.71
2019-01-28T08:12:50.199Z,57.71
2019-01-28T08:13:54.543Z,57.64
2019-01-28T08:14:58.831Z,57.67
2019-01-28T08:16:03.166Z,57.66
2019-01-28T08:17:07.469Z,57.58
2019-01-28T08:18:11.766Z,57.59
2019-01-28T08:19:16.382Z,57.55
2019-01-28T08:20:20.859Z,57.56
2019-01-28T08:21:25.171Z,57.66
2019-01-28T08:22:29.269Z,57.59
2019-01-28T08:23:33.599Z,57.29
2019-01-28T08:24:37.562Z,57.13
2019-01-28T08:25:41.504Z,57.20
2019-01-28T08:26:45.743Z,57.29
2019-01-28T08:27:49.782Z,57.34
2019-01-28T08:28:54.386Z,57.31
2019-01-28T08:29:58.764Z,57.27
2019-01-28T08:31:03.052Z,57.31
2019-01-28T08:32:07.360Z,57.06
2019-01-28T08:33:11.773Z,57.04
2019-01-28T08:34:16.392Z,57.03
2019-01-28T08:35:20.619Z,56.90
2019-01-28T08:36:24.938Z,56.85
2019-01-28T08:37:29.046Z,56.88
2019-01-28T08:38:33.414Z,56.94
2019-01-28T08:39:37.724Z,57.08
2019-01-28T08:40:42.447Z,56.79
2019-01-28T08:41:46.853Z,56.96
2019-01-28T08:42:50.907Z,56.98
2019-01-28T08:43:54.909Z,57.06
2019-01-28T08:45:00.424Z,57.15
2019-01-28T08:46:04.836Z,57.08
2019-01-28T08:47:09.199Z,56.86
2019-01-28T08:48:18.205Z,56.95
2019-01-28T08:49:19.271Z,56.96
2019-01-28T08:50:24.080Z,56.94
2019-01-28T08:51:28.148Z,56.79
2019-01-28T08:52:32.539Z,56.77
2019-01-28T08:53:37.220Z,56.75
2019-01-28T08:54:41.446Z,56.70
2019-01-28T08:55:46.012Z,56.47
2019-01-28T08:56:50.015Z,56.40
2019-01-28T08:57:54.262Z,56.45
2019-01-28T08:58:58.753Z,56.42
2019-01-28T09:00:03.249Z,56.52
2019-01-28T09:01:07.336Z,56.56
2019-01-28T09:02:11.547Z,56.47
2019-01-28T09:03:15.518Z,56.44
2019-01-28T09:04:19.747Z,56.32
2019-01-28T09:05:23.745Z,56.39
2019-01-28T09:06:28.240Z,56.44
2019-01-28T09:07:32.487Z,56.41
2019-01-28T09:08:36.486Z,56.29
2019-01-28T09:09:40.715Z,56.30
2019-01-28T09:10:45.044Z,56.35
2019-01-28T09:11:49.159Z,56.33
2019-01-28T09:12:53.247Z,56.36
2019-01-28T09:13:57.227Z,56.41
2019-01-28T09:15:02.971Z,56.62
2019-01-28T09:16:07.272Z,56.76
2019-01-28T09:17:11.581Z,56.77
2019-01-28T09:18:16.050Z,56.82
2019-01-28T09:19:20.706Z,56.85
2019-01-28T09:20:24.918Z,56.58
2019-01-28T09:21:28.924Z,56.54
2019-01-28T09:22:33.378Z,56.55
2019-01-28T09:23:37.631Z,56.72
2019-01-28T09:24:41.770Z,56.77
2019-01-28T09:25:46.041Z,56.79
2019-01-28T09:26:50.772Z,56.42
2019-01-28T09:27:55.523Z,56.19
2019-01-28T09:28:59.503Z,56.29
2019-01-28T09:30:03.991Z,56.49
2019-01-28T09:31:08.083Z,56.53
2019-01-28T09:32:12.409Z,56.40
2019-01-28T09:33:16.353Z,56.42
2019-01-28T09:34:20.672Z,56.42
2019-01-28T09:35:24.844Z,56.57
2019-01-28T09:36:28.885Z,56.54
2019-01-28T09:37:33.124Z,56.53
2019-01-28T09:38:37.214Z,56.33
2019-01-28T09:39:41.179Z,56.47
2019-01-28T09:40:45.743Z,56.51
2019-01-28T09:41:49.658Z,56.50
2019-01-28T09:42:53.659Z,56.49
2019-01-28T09:43:57.700Z,56.35
2019-01-28T09:45:02.073Z,56.25
2019-01-28T09:46:06.131Z,56.33
2019-01-28T09:47:10.465Z,56.40
2019-01-28T09:48:15.985Z,56.44
2019-01-28T09:49:20.408Z,56.42
2019-01-28T09:50:24.951Z,56.47
2019-01-28T09:51:29.359Z,56.45
2019-01-28T09:52:33.373Z,56.49
2019-01-28T09:53:37.644Z,56.52
2019-01-28T09:54:43.584Z,56.55
2019-01-28T09:55:47.709Z,56.75
2019-01-28T09:56:52.042Z,56.85
2019-01-28T09:57:56.257Z,56.89
2019-01-28T09:59:00.258Z,56.83
2019-01-28T10:00:07.188Z,57.00
2019-01-28T10:01:11.533Z,57.09
2019-01-28T10:02:15.813Z,57.20
2019-01-28T10:03:20.310Z,57.21
2019-01-28T10:04:24.615Z,57.19
2019-01-28T10:05:29.334Z,57.19
2019-01-28T10:06:34.212Z,57.22
2019-01-28T10:07:38.198Z,57.32
2019-01-28T10:08:43.408Z,57.41
2019-01-28T10:09:47.392Z,57.27
2019-01-28T10:10:51.376Z,57.18
2019-01-28T10:11:55.699Z,57.21
2019-01-28T10:12:59.968Z,57.15
2019-01-28T10:14:04.410Z,57.21
2019-01-28T10:15:11.151Z,57.29
2019-01-28T10:16:15.232Z,57.22
2019-01-28T10:17:19.487Z,57.15
2019-01-28T10:18:23.593Z,57.10
2019-01-28T10:19:28.003Z,57.25
2019-01-28T10:20:34.610Z,57.43
2019-01-28T10:21:39.779Z,57.45
2019-01-28T10:22:44.009Z,57.48
2019-01-28T10:23:48.006Z,57.60
2019-01-28T10:24:52.336Z,57.59
2019-01-28T10:25:57.876Z,57.58
2019-01-28T10:27:01.831Z,57.50
2019-01-28T10:28:05.815Z,57.46
2019-01-28T10:29:09.929Z,57.44
2019-01-28T10:30:17.972Z,57.38
2019-01-28T10:31:22.635Z,57.40
2019-01-28T10:32:26.859Z,57.48
2019-01-28T10:33:31.479Z,57.54
2019-01-28T10:34:35.743Z,57.59
2019-01-28T10:35:41.371Z,57.51
2019-01-28T10:36:46.153Z,57.59
2019-01-28T10:37:50.272Z,57.65
2019-01-28T10:38:54.260Z,57.58
2019-01-28T10:39:58.669Z,57.59
2019-01-28T10:41:02.715Z,57.61
2019-01-28T10:42:09.855Z,57.72
2019-01-28T10:43:13.452Z,57.64
2019-01-28T10:44:17.562Z,57.65
2019-01-28T10:45:22.148Z,57.69
2019-01-28T10:46:26.131Z,57.85
2019-01-28T10:47:30.116Z,57.76
2019-01-28T10:48:34.318Z,57.98
2019-01-28T10:49:38.879Z,58.00
2019-01-28T10:50:44.199Z,57.98
2019-01-28T10:51:48.873Z,58.15
2019-01-28T10:52:53.027Z,58.14
2019-01-28T10:53:57.431Z,58.20
2019-01-28T10:55:01.755Z,58.23
2019-01-28T10:56:06.603Z,58.14
2019-01-28T10:57:11.083Z,58.16
2019-01-28T10:58:15.076Z,58.28
2019-01-28T10:59:19.626Z,58.28
2019-01-28T11:00:43.958Z,58.32
2019-01-28T11:01:48.473Z,58.21
2019-01-28T11:02:53.230Z,58.16
2019-01-28T11:03:57.558Z,57.97
2019-01-28T11:05:01.794Z,57.88
2019-01-28T11:06:06.249Z,58.06
2019-01-28T11:07:10.470Z,58.20
2019-01-28T11:08:14.451Z,58.23
2019-01-28T11:09:18.837Z,58.30
2019-01-28T11:10:22.988Z,58.47
2019-01-28T11:11:27.404Z,58.57
2019-01-28T11:12:32.673Z,58.42
2019-01-28T11:13:36.898Z,58.44
2019-01-28T11:14:40.813Z,58.46
2019-01-28T11:15:44.838Z,58.33
2019-01-28T11:16:49.381Z,58.31
2019-01-28T11:17:53.890Z,58.34
2019-01-28T11:18:58.211Z,58.42
2019-01-28T11:20:02.301Z,58.50
2019-01-28T11:21:06.821Z,58.46
2019-01-28T11:22:10.904Z,58.43
2019-01-28T11:23:15.375Z,58.50
2019-01-28T11:24:20.214Z,58.52
2019-01-28T11:25:26.481Z,58.47
2019-01-28T11:26:31.112Z,58.54
2019-01-28T11:27:35.489Z,58.59
2019-01-28T11:28:40.086Z,58.65
2019-01-28T11:29:44.089Z,58.76
2019-01-28T11:30:53.307Z,58.85
2019-01-28T11:31:57.551Z,58.98
2019-01-28T11:33:02.200Z,59.01
2019-01-28T11:34:06.442Z,58.97
2019-01-28T11:35:10.429Z,58.86
2019-01-28T11:36:14.695Z,58.84
2019-01-28T11:37:18.725Z,58.90
2019-01-28T11:38:22.843Z,58.88
2019-01-28T11:39:26.974Z,58.62
2019-01-28T11:40:31.300Z,58.71
2019-01-28T11:41:35.662Z,58.86
2019-01-28T11:42:40.295Z,59.00
2019-01-28T11:43:44.636Z,59.13
2019-01-28T11:44:48.922Z,59.11
2019-01-28T11:45:55.768Z,59.07
2019-01-28T11:47:00.089Z,59.15
2019-01-28T11:48:04.293Z,59.29
2019-01-28T11:49:08.581Z,59.33
2019-01-28T11:50:13.212Z,59.31
2019-01-28T11:51:17.561Z,59.13
2019-01-28T11:52:21.602Z,59.16
2019-01-28T11:53:25.582Z,59.06
2019-01-28T11:54:29.837Z,59.10
2019-01-28T11:55:35.282Z,59.16
2019-01-28T11:56:39.374Z,59.15
2019-01-28T11:57:43.559Z,59.12
2019-01-28T11:58:47.928Z,59.11
2019-01-28T11:59:51.942Z,59.25
2019-01-28T12:01:04.942Z,59.24
2019-01-28T12:02:08.938Z,59.22
2019-01-28T12:03:13.291Z,59.30
2019-01-28T12:04:19.160Z,59.33
2019-01-28T12:05:23.487Z,59.34
2019-01-28T12:06:27.829Z,59.34
2019-01-28T12:07:32.079Z,59.30
2019-01-28T12:08:36.414Z,59.22
2019-01-28T12:09:40.675Z,59.15
2019-01-28T12:10:45.008Z,59.17
2019-01-28T12:11:49.012Z,59.14
2019-01-28T12:12:53.706Z,59.13
2019-01-28T12:13:58.288Z,59.05
2019-01-28T12:15:02.279Z,58.98
2019-01-28T12:16:06.934Z,58.93
2019-01-28T12:17:11.242Z,58.94
2019-01-28T12:18:15.859Z,59.00
2019-01-28T12:19:21.623Z,59.03
2019-01-28T12:20:25.629Z,59.11
2019-01-28T12:21:29.607Z,59.15
2019-01-28T12:22:33.912Z,59.22
2019-01-28T12:23:37.899Z,59.29
2019-01-28T12:24:42.241Z,59.38
2019-01-28T12:25:46.228Z,59.46
2019-01-28T12:26:50.557Z,59.49
2019-01-28T12:27:54.623Z,59.44
2019-01-28T12:28:58.606Z,59.33
2019-01-28T12:30:03.573Z,59.24
2019-01-28T12:31:07.562Z,59.14
2019-01-28T12:32:11.544Z,59.03
2019-01-28T12:33:15.863Z,59.03
2019-01-28T12:34:20.138Z,58.92
2019-01-28T12:35:24.467Z,58.89
2019-01-28T12:36:28.694Z,58.82
2019-01-28T12:37:32.930Z,58.84
2019-01-28T12:38:36.925Z,58.89
2019-01-28T12:39:41.217Z,58.73
2019-01-28T12:40:45.282Z,58.67
2019-01-28T12:41:50.100Z,58.61
2019-01-28T12:42:54.324Z,58.65
2019-01-28T12:43:58.567Z,58.63
2019-01-28T12:45:02.715Z,58.64
2019-01-28T12:46:07.314Z,58.73
2019-01-28T12:47:11.892Z,58.78
2019-01-28T12:48:16.163Z,58.84
2019-01-28T12:49:22.125Z,58.85
2019-01-28T12:50:26.079Z,58.86
2019-01-28T12:51:30.088Z,58.85
2019-01-28T12:52:35.759Z,58.80
2019-01-28T12:53:39.739Z,58.74
2019-01-28T12:54:43.931Z,58.63
2019-01-28T12:55:48.420Z,58.68
2019-01-28T12:56:52.646Z,58.72
2019-01-28T12:57:56.896Z,58.68
2019-01-28T12:59:08.817Z,58.68
2019-01-28T13:00:08.587Z,58.68
2019-01-28T13:01:12.562Z,58.64
2019-01-28T13:02:17.047Z,58.50
2019-01-28T13:03:21.327Z,58.59
2019-01-28T13:04:25.871Z,58.62
2019-01-28T13:05:29.850Z,58.63
2019-01-28T13:06:34.123Z,58.69
2019-01-28T13:07:39.869Z,58.59
2019-01-28T13:08:44.166Z,58.74
2019-01-28T13:09:48.152Z,58.88
2019-01-28T13:10:52.890Z,59.00
2019-01-28T13:11:56.919Z,58.95
2019-01-28T13:13:01.538Z,58.95
2019-01-28T13:14:05.610Z,58.95
2019-01-28T13:15:13.504Z,58.88
2019-01-28T13:16:17.828Z,58.66
2019-01-28T13:17:22.173Z,58.58
2019-01-28T13:18:26.449Z,58.62
2019-01-28T13:19:31.152Z,58.61
2019-01-28T13:20:35.455Z,58.51
2019-01-28T13:21:39.763Z,58.35
2019-01-28T13:22:44.985Z,58.27
2019-01-28T13:23:49.510Z,58.51
2019-01-28T13:24:53.922Z,58.62
2019-01-28T13:25:58.634Z,58.53
2019-01-28T13:27:02.705Z,58.30
2019-01-28T13:28:07.151Z,58.31
2019-01-28T13:29:11.456Z,58.41
2019-01-28T13:30:20.880Z,58.52
2019-01-28T13:31:25.398Z,58.63
2019-01-28T13:32:29.695Z,58.73
2019-01-28T13:33:34.118Z,58.76
2019-01-28T13:34:38.732Z,58.78
2019-01-28T13:35:43.015Z,58.75
2019-01-28T13:36:47.557Z,58.81
2019-01-28T13:37:51.811Z,58.85
2019-01-28T13:38:56.508Z,58.82
2019-01-28T13:40:00.698Z,58.79
2019-01-28T13:41:04.992Z,58.84
2019-01-28T13:42:08.975Z,58.87
2019-01-28T13:43:13.059Z,58.78
2019-01-28T13:44:16.983Z,58.76
2019-01-28T13:45:21.409Z,58.75
2019-01-28T13:46:25.715Z,58.75
2019-01-28T13:47:30.008Z,58.79
2019-01-28T13:48:33.931Z,58.82
2019-01-28T13:49:38.605Z,58.77